Terminal Aerodrome Forecast
Issued by NWS Jackson, MS

Home | Current Version | Previous Version | Text Only | Print | Product List | Glossary On
Versions: 1 2 3 4 5 6 7 8 9 10 11 12
000
FTUS44 KMEG 191720
TAFTUP
TAF
KTUP 191720Z 1918/2018 19007KT P6SM OVC040
     FM200000 20004KT P6SM OVC040
     FM201500 20006KT P6SM OVC040=

USA.gov is the U.S. government's official web portal to all federal, state and local government web resources and services.